createdAt,value
2019-04-21T00:03:20.594Z,98.70
2019-04-21T00:13:34.519Z,98.00
2019-04-21T00:18:47.902Z,97.80
2019-04-21T00:24:03.871Z,98.00
2019-04-21T00:29:11.372Z,99.90
2019-04-21T00:33:50.189Z,99.90
2019-04-21T00:39:25.057Z,99.90
2019-04-21T00:44:08.736Z,99.90
2019-04-21T00:49:16.920Z,99.90
2019-04-21T00:54:35.868Z,99.90
2019-04-21T00:59:34.896Z,99.90
2019-04-21T01:04:43.221Z,99.90
2019-04-21T01:09:32.781Z,99.90
2019-04-21T01:14:53.950Z,99.90
2019-04-21T01:19:39.808Z,99.90
2019-04-21T01:24:33.037Z,99.90
2019-04-21T01:29:55.102Z,99.90
2019-04-21T01:34:51.638Z,99.90
2019-04-21T01:40:04.718Z,99.90
2019-04-21T01:44:58.264Z,99.90
2019-04-21T01:49:53.201Z,99.90
2019-04-21T01:55:08.299Z,99.90
2019-04-21T02:00:04.724Z,99.90
2019-04-21T02:05:26.514Z,99.90
2019-04-21T02:10:26.680Z,99.90
2019-04-21T02:15:31.191Z,99.90
2019-04-21T02:20:24.492Z,99.90
2019-04-21T02:25:31.734Z,99.90
2019-04-21T02:30:55.066Z,99.90
2019-04-21T02:36:07.052Z,99.90
2019-04-21T02:45:59.584Z,99.90
2019-04-21T02:50:50.756Z,99.90
2019-04-21T02:56:00.710Z,99.90
2019-04-21T03:01:14.535Z,99.90
2019-04-21T03:06:18.728Z,99.90
2019-04-21T03:11:25.099Z,99.90
2019-04-21T03:32:04.416Z,99.90
2019-04-21T03:42:00.255Z,99.90
2019-04-21T03:46:56.071Z,99.90
2019-04-21T03:51:45.805Z,99.90
2019-04-21T04:02:08.173Z,99.90
2019-04-21T04:07:11.096Z,99.90
2019-04-21T04:12:12.532Z,99.90
2019-04-21T04:17:21.707Z,99.90
2019-04-21T04:32:25.225Z,99.90
2019-04-21T04:37:32.661Z,99.90
2019-04-21T04:47:51.246Z,99.90
2019-04-21T04:57:57.325Z,99.90
2019-04-21T05:02:42.042Z,99.90
2019-04-21T05:07:52.344Z,99.90
2019-04-21T05:12:43.951Z,99.90
2019-04-21T05:17:55.384Z,99.90
2019-04-21T05:22:47.643Z,99.90
2019-04-21T05:27:42.937Z,99.90
2019-04-21T05:33:09.212Z,99.90
2019-04-21T05:38:01.408Z,99.90
2019-04-21T05:42:55.714Z,99.90
2019-04-21T05:48:18.888Z,99.90
2019-04-21T05:53:08.730Z,99.90
2019-04-21T05:58:14.493Z,99.90
2019-04-21T06:03:15.168Z,99.90
2019-04-21T06:08:17.913Z,99.90
2019-04-21T06:13:28.184Z,99.90
2019-04-21T06:18:36.441Z,99.90
2019-04-21T06:23:32.748Z,99.90
2019-04-21T06:33:41.724Z,99.90
2019-04-21T06:38:59.664Z,99.50
2019-04-21T06:43:56.696Z,96.70
2019-04-21T06:48:58.345Z,95.70
2019-04-21T06:59:01.324Z,91.90
2019-04-21T07:04:13.395Z,92.40
2019-04-21T07:09:15.925Z,90.00
2019-04-21T07:24:21.877Z,71.30
2019-04-21T07:29:21.877Z,69.50
2019-04-21T07:39:16.634Z,61.20
2019-04-21T07:44:23.014Z,57.60
2019-04-21T07:49:43.608Z,55.50
2019-04-21T07:54:44.323Z,53.70
2019-04-21T08:00:04.041Z,51.30
2019-04-21T08:09:51.129Z,41.70
2019-04-21T08:15:03.213Z,36.80
2019-04-21T08:19:53.085Z,33.40
2019-04-21T08:25:02.911Z,34.10
2019-04-21T08:30:05.027Z,29.50
2019-04-21T08:35:34.242Z,30.20
2019-04-21T08:45:15.277Z,26.80
2019-04-21T08:50:15.237Z,26.20
2019-04-21T08:55:35.062Z,26.10
2019-04-21T09:00:50.583Z,26.10
2019-04-21T09:05:53.984Z,23.80
2019-04-21T09:10:53.081Z,22.80
2019-04-21T09:15:52.364Z,23.60
2019-04-21T09:20:58.037Z,22.60
2019-04-21T09:25:57.445Z,22.50
2019-04-21T09:30:52.200Z,21.50
2019-04-21T09:35:55.613Z,22.60
2019-04-21T09:40:54.378Z,21.60
2019-04-21T09:45:54.277Z,21.50
2019-04-21T09:50:55.495Z,19.70
2019-04-21T09:56:01.299Z,20.40
2019-04-21T10:01:08.444Z,19.90
2019-04-21T10:06:04.321Z,20.60
2019-04-21T10:11:05.719Z,19.80
2019-04-21T10:16:11.492Z,20.00
2019-04-21T10:21:13.150Z,17.80
2019-04-21T10:26:14.640Z,19.00
2019-04-21T10:31:16.736Z,18.70
2019-04-21T10:36:19.436Z,17.70
2019-04-21T10:41:21.481Z,16.90
2019-04-21T10:46:22.887Z,16.40
2019-04-21T10:51:25.298Z,17.40
2019-04-21T10:56:31.547Z,17.20
2019-04-21T11:01:31.366Z,17.40
2019-04-21T11:06:34.618Z,16.20
2019-04-21T11:11:35.962Z,17.50
2019-04-21T11:16:37.273Z,18.80
2019-04-21T11:21:38.744Z,15.60
2019-04-21T11:26:40.165Z,16.10
2019-04-21T11:31:41.450Z,16.30
2019-04-21T11:36:43.794Z,15.60
2019-04-21T11:41:45.747Z,16.20
2019-04-21T11:46:46.959Z,16.60
2019-04-21T11:51:49.028Z,16.40
2019-04-21T11:56:50.654Z,15.30
2019-04-21T12:01:51.985Z,17.00
2019-04-21T12:06:54.587Z,15.10
2019-04-21T12:11:57.032Z,15.60
2019-04-21T12:16:59.300Z,14.20
2019-04-21T12:22:10.013Z,14.20
2019-04-21T12:27:04.094Z,13.90
2019-04-21T12:32:09.697Z,13.60
2019-04-21T12:37:11.056Z,15.20
2019-04-21T12:42:12.588Z,15.00
2019-04-21T12:47:14.176Z,14.50
2019-04-21T12:52:17.780Z,14.30
2019-04-21T12:57:21.303Z,13.00
2019-04-21T13:02:22.628Z,13.60
2019-04-21T13:07:23.727Z,13.30
2019-04-21T13:12:24.934Z,13.60
2019-04-21T13:17:26.130Z,13.30
2019-04-21T13:22:28.007Z,14.20
2019-04-21T13:27:29.301Z,13.00
2019-04-21T13:32:31.151Z,13.00
2019-04-21T13:37:33.273Z,13.10
2019-04-21T13:42:42.679Z,12.90
2019-04-21T13:47:40.775Z,12.50
2019-04-21T13:52:42.700Z,12.60
2019-04-21T13:57:44.457Z,13.50
2019-04-21T14:02:46.983Z,12.30
2019-04-21T14:07:48.270Z,12.50
2019-04-21T14:12:50.586Z,13.10
2019-04-21T14:17:53.065Z,12.50
2019-04-21T14:22:54.454Z,11.60
2019-04-21T14:27:56.426Z,11.70
2019-04-21T14:32:58.571Z,12.70
2019-04-21T14:38:00.522Z,13.00
2019-04-21T14:43:02.635Z,13.20
2019-04-21T14:48:07.145Z,13.30
2019-04-21T14:53:13.860Z,13.60
2019-04-21T14:58:15.175Z,13.50
2019-04-21T15:03:16.393Z,12.90
2019-04-21T15:08:17.719Z,13.00
2019-04-21T15:13:19.578Z,13.30
2019-04-21T15:18:21.058Z,12.70
2019-04-21T15:23:25.241Z,11.80
2019-04-21T15:28:26.285Z,11.50
2019-04-21T15:33:28.700Z,11.80
2019-04-21T15:38:29.998Z,12.20
2019-04-21T15:43:31.106Z,12.60
2019-04-21T15:48:33.085Z,12.70
2019-04-21T15:53:37.478Z,13.10
2019-04-21T15:58:52.763Z,12.90
2019-04-21T16:03:56.692Z,13.10
2019-04-21T16:08:59.298Z,13.20
2019-04-21T16:14:01.725Z,13.50
2019-04-21T16:19:03.940Z,13.30
2019-04-21T16:24:06.742Z,12.90
2019-04-21T16:29:09.068Z,13.00
2019-04-21T16:34:10.386Z,13.30
2019-04-21T16:39:11.673Z,12.80
2019-04-21T16:44:13.429Z,12.60
2019-04-21T16:49:15.868Z,12.70
2019-04-21T16:54:19.994Z,13.10
2019-04-21T16:59:30.530Z,13.60
2019-04-21T17:04:31.789Z,13.70
2019-04-21T17:09:32.900Z,13.80
2019-04-21T17:14:49.475Z,14.40
2019-04-21T17:19:44.986Z,14.90
2019-04-21T17:24:40.308Z,15.80
2019-04-21T17:29:43.105Z,16.40
2019-04-21T17:34:45.726Z,17.80
2019-04-21T17:39:47.275Z,19.40
2019-04-21T17:44:48.571Z,20.70
2019-04-21T17:49:51.578Z,21.20
2019-04-21T17:55:06.209Z,23.20
2019-04-21T18:00:28.782Z,24.10
2019-04-21T18:05:27.328Z,25.10
2019-04-21T18:10:27.654Z,26.90
2019-04-21T18:15:32.490Z,27.60
2019-04-21T18:20:21.968Z,28.60
2019-04-21T18:25:37.603Z,28.40
2019-04-21T18:30:46.595Z,31.80
2019-04-21T18:36:04.210Z,35.60
2019-04-21T18:41:07.601Z,38.40
2019-04-21T18:46:33.137Z,39.50
2019-04-21T18:51:35.964Z,40.90
2019-04-21T18:56:27.738Z,41.90
2019-04-21T19:01:32.840Z,43.20
2019-04-21T19:06:45.387Z,44.50
2019-04-21T19:11:53.461Z,45.50
2019-04-21T19:17:10.933Z,46.50
2019-04-21T19:22:00.100Z,46.80
2019-04-21T19:27:04.650Z,47.80
2019-04-21T19:32:08.838Z,48.60
2019-04-21T19:36:57.612Z,49.30
2019-04-21T19:42:03.133Z,50.10
2019-04-21T19:47:19.862Z,50.10
2019-04-21T19:52:07.488Z,50.80
2019-04-21T19:57:03.253Z,51.90
2019-04-21T20:02:04.662Z,52.80
2019-04-21T20:07:23.329Z,53.30
2019-04-21T20:12:33.209Z,53.80
2019-04-21T20:17:32.480Z,54.60
2019-04-21T20:22:16.770Z,55.10
2019-04-21T20:27:31.160Z,55.10
2019-04-21T20:32:43.018Z,55.80
2019-04-21T20:37:45.673Z,56.60
2019-04-21T20:42:42.732Z,58.10
2019-04-21T20:47:37.666Z,58.60
2019-04-21T20:52:55.180Z,59.60
2019-04-21T20:57:48.130Z,61.70
2019-04-21T21:03:02.545Z,64.00
2019-04-21T21:08:08.582Z,63.00
2019-04-21T21:13:14.522Z,66.10
2019-04-21T21:18:15.560Z,69.70
2019-04-21T21:23:02.823Z,73.00
2019-04-21T21:28:04.290Z,76.40
2019-04-21T21:33:17.405Z,78.10
2019-04-21T21:38:19.711Z,81.00
2019-04-21T21:43:08.231Z,87.70
2019-04-21T21:48:24.722Z,87.20
2019-04-21T21:53:16.183Z,91.40
2019-04-21T21:58:15.637Z,93.20
2019-04-21T22:03:24.399Z,92.90
2019-04-21T22:08:20.665Z,92.50
2019-04-21T22:13:31.905Z,82.70
2019-04-21T22:18:39.062Z,78.30
2019-04-21T22:23:42.779Z,79.90
2019-04-21T22:28:31.606Z,72.90
2019-04-21T22:33:40.274Z,69.80
2019-04-21T22:38:49.159Z,67.20
2019-04-21T22:43:43.782Z,66.50
2019-04-21T22:48:45.312Z,65.90
2019-04-21T22:53:49.028Z,58.10
2019-04-21T22:58:49.588Z,63.70
2019-04-21T23:03:56.882Z,62.30
2019-04-21T23:08:55.089Z,60.30
2019-04-21T23:14:02.516Z,59.40
2019-04-21T23:19:21.163Z,55.60
2019-04-21T23:24:26.213Z,57.50
2019-04-21T23:29:25.868Z,58.00
2019-04-21T23:34:10.857Z,57.30
2019-04-21T23:39:15.664Z,51.80
2019-04-21T23:44:18.714Z,53.10
2019-04-21T23:49:31.957Z,49.80
2019-04-21T23:54:21.247Z,51.10
2019-04-21T23:59:22.670Z,49.30
